createdAt,value
2022-10-26T00:00:34.481Z,-108.00
2022-10-26T00:05:41.750Z,-108.00
2022-10-26T00:10:48.906Z,-108.00
2022-10-26T00:15:56.215Z,-144.00
2022-10-26T00:21:03.436Z,-108.00
2022-10-26T00:26:11.079Z,-144.00
2022-10-26T00:31:18.306Z,-144.00
2022-10-26T00:36:25.543Z,-144.00
2022-10-26T00:41:32.734Z,-144.00
2022-10-26T00:46:39.922Z,-144.00
2022-10-26T00:51:47.157Z,-108.00
2022-10-26T00:56:54.339Z,-108.00
2022-10-26T01:02:01.536Z,-108.00
2022-10-26T01:07:08.848Z,-144.00
2022-10-26T01:12:15.947Z,-144.00
2022-10-26T01:17:23.163Z,-108.00
2022-10-26T01:22:30.392Z,-144.00
2022-10-26T01:27:37.580Z,-108.00
2022-10-26T01:32:44.759Z,-108.00
2022-10-26T01:37:52.189Z,-108.00
2022-10-26T01:42:59.171Z,-108.00
2022-10-26T01:48:06.421Z,-108.00
2022-10-26T01:53:13.918Z,-144.00
2022-10-26T01:58:21.063Z,-108.00
2022-10-26T02:03:28.444Z,-108.00
2022-10-26T02:08:35.562Z,-108.00
2022-10-26T02:13:42.742Z,-144.00
2022-10-26T02:18:49.916Z,-108.00
2022-10-26T02:23:57.196Z,-108.00
2022-10-26T02:29:04.322Z,-144.00
2022-10-26T02:34:11.485Z,-108.00
2022-10-26T02:39:18.661Z,-144.00
2022-10-26T02:44:26.905Z,-108.00
2022-10-26T02:49:34.117Z,-108.00
2022-10-26T02:54:41.302Z,-108.00
2022-10-26T02:59:48.482Z,-108.00
2022-10-26T03:04:55.679Z,-108.00
2022-10-26T03:10:02.908Z,-108.00
2022-10-26T03:15:10.068Z,-144.00
2022-10-26T03:20:17.284Z,-144.00
2022-10-26T03:25:24.533Z,-144.00
2022-10-26T03:30:31.661Z,-108.00
2022-10-26T03:35:38.936Z,-108.00
2022-10-26T03:40:46.141Z,-108.00
2022-10-26T03:45:53.331Z,-108.00
2022-10-26T03:51:00.507Z,-108.00
2022-10-26T03:56:07.752Z,-108.00
2022-10-26T04:01:14.972Z,-108.00
2022-10-26T04:06:22.215Z,-108.00
2022-10-26T04:11:29.462Z,-108.00
2022-10-26T04:16:36.654Z,-144.00
2022-10-26T04:21:43.852Z,-144.00
2022-10-26T04:26:51.141Z,-108.00
2022-10-26T04:31:58.293Z,-144.00
2022-10-26T04:37:05.446Z,-108.00
2022-10-26T04:42:12.724Z,-108.00
2022-10-26T04:47:19.856Z,-108.00
2022-10-26T04:52:27.178Z,-180.00
2022-10-26T04:57:34.436Z,-108.00
2022-10-26T05:02:42.361Z,-108.00
2022-10-26T05:07:49.798Z,-108.00
2022-10-26T05:12:56.959Z,-144.00
2022-10-26T05:18:04.170Z,-144.00
2022-10-26T05:23:11.427Z,-108.00
2022-10-26T05:28:18.651Z,-144.00
2022-10-26T05:33:25.818Z,-108.00
2022-10-26T05:38:33.072Z,-144.00
2022-10-26T05:43:40.284Z,-144.00
2022-10-26T05:48:47.462Z,-144.00
2022-10-26T05:53:54.674Z,-108.00
2022-10-26T05:59:01.835Z,-108.00
2022-10-26T06:04:08.993Z,-108.00
2022-10-26T06:09:16.175Z,-108.00
2022-10-26T06:14:24.135Z,-108.00
2022-10-26T06:19:31.335Z,-108.00
2022-10-26T06:24:38.504Z,-36.00
2022-10-26T06:29:46.246Z,-108.00
2022-10-26T06:34:53.438Z,-108.00
2022-10-26T06:40:00.629Z,-108.00
2022-10-26T06:45:09.035Z,-108.00
2022-10-26T06:50:17.407Z,-72.00
2022-10-26T06:55:24.603Z,-108.00
2022-10-26T07:05:39.017Z,-108.00
2022-10-26T07:10:47.044Z,3132.00
2022-10-26T07:15:54.279Z,2556.00
2022-10-26T07:21:01.459Z,4500.00
2022-10-26T07:26:08.726Z,6372.00
2022-10-26T07:31:15.993Z,7560.00
2022-10-26T07:36:23.177Z,7056.00
2022-10-26T07:41:30.396Z,8964.00
2022-10-26T07:46:37.603Z,8316.00
2022-10-26T07:51:44.777Z,8532.00
2022-10-26T07:56:52.071Z,13320.00
2022-10-26T08:01:59.379Z,8856.00
2022-10-26T08:07:06.460Z,12204.00
2022-10-26T08:12:13.723Z,14832.00
2022-10-26T08:17:21.045Z,10044.00
2022-10-26T08:22:28.253Z,9252.00
2022-10-26T08:27:35.520Z,17244.00
2022-10-26T08:32:42.775Z,11592.00
2022-10-26T08:37:49.933Z,16596.00
2022-10-26T08:42:57.128Z,16632.00
2022-10-26T08:48:04.362Z,14976.00
2022-10-26T08:53:11.588Z,16848.00
2022-10-26T08:58:18.787Z,12384.00
2022-10-26T09:03:26.044Z,17460.00
2022-10-26T09:08:33.283Z,15840.00
2022-10-26T09:13:40.505Z,11484.00
2022-10-26T09:23:54.851Z,15984.00
2022-10-26T09:29:02.092Z,15408.00
2022-10-26T09:34:09.298Z,11988.00
2022-10-26T09:39:16.800Z,11988.00
2022-10-26T09:44:24.001Z,13500.00
2022-10-26T09:49:31.224Z,14940.00
2022-10-26T09:54:38.439Z,16560.00
2022-10-26T09:59:45.645Z,16092.00
2022-10-26T10:04:52.946Z,17892.00
2022-10-26T10:10:00.146Z,18360.00
2022-10-26T10:15:07.332Z,19836.00
2022-10-26T10:20:14.565Z,17856.00
2022-10-26T10:25:21.811Z,16128.00
2022-10-26T10:30:28.954Z,16776.00
2022-10-26T10:35:36.154Z,19620.00
2022-10-26T10:40:43.653Z,19800.00
2022-10-26T10:45:52.007Z,18036.00
2022-10-26T10:50:58.128Z,15876.00
2022-10-26T10:56:07.685Z,16380.00
2022-10-26T11:01:12.585Z,14184.00
2022-10-26T11:06:19.705Z,16668.00
2022-10-26T11:11:26.838Z,12888.00
2022-10-26T11:16:34.090Z,12060.00
2022-10-26T11:21:41.320Z,12024.00
2022-10-26T11:26:48.515Z,12600.00
2022-10-26T11:31:55.698Z,14580.00
2022-10-26T11:37:02.933Z,15588.00
2022-10-26T11:42:10.163Z,16092.00
2022-10-26T11:47:17.326Z,16848.00
2022-10-26T11:52:24.743Z,15948.00
2022-10-26T11:57:32.906Z,15912.00
2022-10-26T12:02:40.171Z,14976.00
2022-10-26T12:07:47.635Z,14724.00
2022-10-26T12:12:55.247Z,15084.00
2022-10-26T12:18:02.482Z,13140.00
2022-10-26T12:23:09.750Z,14004.00
2022-10-26T12:28:16.902Z,12960.00
2022-10-26T12:33:24.142Z,13572.00
2022-10-26T12:38:33.829Z,13428.00
2022-10-26T12:43:38.698Z,11808.00
2022-10-26T12:48:45.846Z,15768.00
2022-10-26T12:53:53.087Z,15768.00
2022-10-26T12:59:04.520Z,17532.00
2022-10-26T13:04:07.476Z,18972.00
2022-10-26T13:09:17.622Z,18036.00
2022-10-26T13:14:21.888Z,15048.00
2022-10-26T13:19:29.022Z,15444.00
2022-10-26T13:29:43.483Z,12096.00
2022-10-26T13:34:50.772Z,13176.00
2022-10-26T13:39:58.001Z,13248.00
2022-10-26T13:45:06.407Z,12924.00
2022-10-26T13:50:13.641Z,14760.00
2022-10-26T13:55:20.852Z,16416.00
2022-10-26T14:00:28.023Z,13752.00
2022-10-26T14:05:35.262Z,12636.00
2022-10-26T14:10:42.541Z,11772.00
2022-10-26T14:15:49.725Z,12672.00
2022-10-26T14:20:56.984Z,9864.00
2022-10-26T14:26:04.187Z,9684.00
2022-10-26T14:31:12.992Z,9648.00
2022-10-26T14:36:18.561Z,9468.00
2022-10-26T14:41:25.863Z,9252.00
2022-10-26T14:46:32.882Z,9036.00
2022-10-26T14:51:40.119Z,8892.00
2022-10-26T14:56:47.381Z,8316.00
2022-10-26T15:01:56.331Z,8100.00
2022-10-26T15:07:04.348Z,7884.00
2022-10-26T15:12:13.444Z,7740.00
2022-10-26T15:17:20.659Z,7380.00
2022-10-26T15:22:31.765Z,7092.00
2022-10-26T15:27:35.239Z,6660.00
2022-10-26T15:32:42.419Z,6264.00
2022-10-26T15:37:50.854Z,5760.00
2022-10-26T15:42:58.258Z,4968.00
2022-10-26T15:48:05.666Z,4068.00
2022-10-26T15:53:13.001Z,3132.00
2022-10-26T15:58:20.216Z,2412.00
2022-10-26T16:03:27.451Z,1872.00
2022-10-26T16:08:34.637Z,1188.00
2022-10-26T16:13:41.871Z,756.00
2022-10-26T16:18:51.069Z,1188.00
2022-10-26T16:23:56.703Z,900.00
2022-10-26T16:29:04.001Z,6804.00
2022-10-26T16:34:11.201Z,6768.00
2022-10-26T16:39:18.738Z,6156.00
2022-10-26T16:44:26.140Z,10476.00
2022-10-26T16:49:33.661Z,6120.00
2022-10-26T16:54:41.275Z,8784.00
2022-10-26T16:59:48.649Z,8712.00
2022-10-26T17:04:58.064Z,9396.00
2022-10-26T17:10:04.935Z,9180.00
2022-10-26T17:15:15.904Z,6696.00
2022-10-26T17:20:21.294Z,6588.00
2022-10-26T17:25:28.932Z,6660.00
2022-10-26T17:30:36.547Z,6624.00
2022-10-26T17:35:44.239Z,6624.00
2022-10-26T17:40:51.852Z,6588.00
2022-10-26T17:45:59.603Z,6588.00
2022-10-26T17:51:06.877Z,6156.00
2022-10-26T17:56:14.389Z,6156.00
2022-10-26T18:01:22.108Z,6228.00
2022-10-26T18:06:29.719Z,6300.00
2022-10-26T18:11:37.139Z,6264.00
2022-10-26T18:16:45.729Z,7236.00
2022-10-26T18:21:53.281Z,6588.00
2022-10-26T18:27:00.996Z,6804.00
2022-10-26T18:32:08.356Z,9360.00
2022-10-26T18:37:15.566Z,9180.00
2022-10-26T18:42:23.124Z,9612.00
2022-10-26T18:47:30.864Z,9864.00
2022-10-26T18:52:38.346Z,9576.00
2022-10-26T18:57:45.963Z,9144.00
2022-10-26T19:02:54.058Z,6552.00
2022-10-26T19:08:01.302Z,6876.00
2022-10-26T19:13:08.927Z,6876.00
2022-10-26T19:18:16.363Z,6804.00
2022-10-26T19:23:23.834Z,6804.00
2022-10-26T19:28:31.556Z,9324.00
2022-10-26T19:33:39.806Z,9360.00
2022-10-26T19:38:47.289Z,10044.00
2022-10-26T19:43:55.090Z,9612.00
2022-10-26T19:49:02.660Z,9720.00
2022-10-26T19:54:11.262Z,10116.00
2022-10-26T19:59:18.886Z,6732.00
2022-10-26T20:04:26.278Z,6840.00
2022-10-26T20:09:33.694Z,9972.00
2022-10-26T20:14:41.317Z,10008.00
2022-10-26T20:19:48.944Z,6444.00
2022-10-26T20:24:57.146Z,6300.00
2022-10-26T20:30:04.250Z,6516.00
2022-10-26T20:35:11.795Z,6408.00
2022-10-26T20:40:19.386Z,6444.00
2022-10-26T20:45:26.781Z,6408.00
2022-10-26T20:50:34.222Z,6516.00
2022-10-26T20:55:41.527Z,6336.00
2022-10-26T21:00:48.861Z,6264.00
2022-10-26T21:05:56.006Z,6660.00
2022-10-26T21:11:03.234Z,6624.00
2022-10-26T21:16:13.907Z,6696.00
2022-10-26T21:21:21.107Z,6768.00
2022-10-26T21:26:28.256Z,6732.00
2022-10-26T21:31:40.549Z,6732.00
2022-10-26T21:36:47.813Z,6516.00
2022-10-26T21:41:55.038Z,6696.00
2022-10-26T21:47:02.263Z,6696.00
2022-10-26T21:52:09.484Z,6660.00
2022-10-26T21:57:16.724Z,6768.00
2022-10-26T22:02:24.101Z,6804.00
2022-10-26T22:07:31.219Z,6732.00
2022-10-26T22:12:38.464Z,6876.00
2022-10-26T22:17:45.713Z,6840.00
2022-10-26T22:22:53.001Z,6804.00
2022-10-26T22:28:00.137Z,6660.00
2022-10-26T22:33:07.358Z,6732.00
2022-10-26T22:38:14.537Z,6732.00
2022-10-26T22:43:21.778Z,6732.00
2022-10-26T22:48:28.942Z,6876.00
2022-10-26T22:53:36.155Z,6624.00
2022-10-26T22:58:47.036Z,7380.00
2022-10-26T23:03:54.221Z,-108.00
2022-10-26T23:09:01.401Z,-108.00
2022-10-26T23:14:08.552Z,-108.00
2022-10-26T23:19:16.433Z,-108.00
2022-10-26T23:24:23.683Z,-144.00
2022-10-26T23:29:30.964Z,-108.00
2022-10-26T23:34:39.357Z,-108.00
2022-10-26T23:39:46.615Z,-108.00
2022-10-26T23:44:53.827Z,-144.00
2022-10-26T23:50:00.996Z,-108.00
2022-10-26T23:55:08.209Z,-108.00
